Londonderry, VT

12:55 PM EDT on August 27, 2016 (GMT -0400)
South Londonderry | | Change Station

Elev 1272 ft 43.19 °N, 72.85 °W | Updated 3 minutes ago

Clear
Clear
79.9 °F
Feels Like 81 °F
N
1.2
Wind Variable Wind from NNE
Gusts 3.7 mph

Today
High -- | Low -- °F
--% Chance of Precip.
Yesterday
High -- | Low -- °F
Precip. -- in
Pressure 30.21 in
Visibility 10.0 miles
Clouds Clear
Heat Index 81 °F
Dew Point 62 °F
Humidity 54%
Rainfall Not available.
Snow Depth Not available.
6:10 AM 7:33 PM
Waning Crescent, 23% visible
METAR KVSF 271554Z AUTO VRB03KT 10SM CLR 25/17 A3021 RMK AO2 SLP229 T02500167 TSNO
Pressure 30.21 in
Visibility 10.0 miles
Clouds Clear
Heat Index 81 °F
Dew Point 62 °F
Humidity 54%
Rainfall Not available.
Snow Depth Not available.
6:10 AM 7:33 PM
Waning Crescent, 23% visible
METAR KVSF 271554Z AUTO VRB03KT 10SM CLR 25/17 A3021 RMK AO2 SLP229 T02500167 TSNO

10-Day Weather Forecast

Almanac

Astronomy

Aug. 27, 2016 Rise Set
Actual Time
Civil Twilight
Nautical Twilight
Astronomical Twilight
Moon
Length of Visible Light
Length of Day
Tomorrow will be .
, % of the Moon is Illuminated

Today's Extremes

State Highs State Lows

Community

WunderPhotos

Upload Photos

1,935,377 photos uploaded!

WunderBlog® & News

Nearby

Air Quality

  Air Quality AQ Index Pollutant
Not available.

Snow Depth

Station Depth Elevation

Earthquake Activity

City Distance Mag. Time & Date
Minimum magnitude displayed is 2.5.

Coastal Water Temperatures

Place Temperature

Stations

Nearby Weather Stations

Station Location Temp. Windchill Dew Point Humidity Wind Precip. Elev Updated Type
                   

Watches & Warnings

There are currently no watches in effect.